sensor_id;sensor_type;location;lat;lon;timestamp;P1;durP1;ratioP1;P2;durP2;ratioP2
57856;SDS011;43683;48.650;9.290;2023-08-21T00:00:01;11.13;;;7.13;;
57856;SDS011;43683;48.650;9.290;2023-08-21T00:02:28;10.45;;;6.55;;
57856;SDS011;43683;48.650;9.290;2023-08-21T00:04:54;13.93;;;6.90;;
57856;SDS011;43683;48.650;9.290;2023-08-21T00:07:20;10.07;;;6.30;;
57856;SDS011;43683;48.650;9.290;2023-08-21T00:09:45;10.23;;;6.30;;
57856;SDS011;43683;48.650;9.290;2023-08-21T00:12:11;9.23;;;6.57;;
57856;SDS011;43683;48.650;9.290;2023-08-21T00:14:36;12.43;;;6.55;;
57856;SDS011;43683;48.650;9.290;2023-08-21T00:17:02;11.25;;;6.53;;
57856;SDS011;43683;48.650;9.290;2023-08-21T00:19:28;12.82;;;6.68;;
57856;SDS011;43683;48.650;9.290;2023-08-21T00:21:54;11.98;;;7.32;;
57856;SDS011;43683;48.650;9.290;2023-08-21T00:24:20;12.13;;;7.38;;
57856;SDS011;43683;48.650;9.290;2023-08-21T00:26:45;10.98;;;6.75;;
57856;SDS011;43683;48.650;9.290;2023-08-21T00:29:11;11.35;;;7.30;;
57856;SDS011;43683;48.650;9.290;2023-08-21T00:31:36;14.77;;;7.70;;
57856;SDS011;43683;48.650;9.290;2023-08-21T00:34:02;10.35;;;6.93;;
57856;SDS011;43683;48.650;9.290;2023-08-21T00:36:27;11.40;;;7.00;;
57856;SDS011;43683;48.650;9.290;2023-08-21T00:38:53;9.95;;;7.03;;
57856;SDS011;43683;48.650;9.290;2023-08-21T00:41:18;10.18;;;6.75;;
57856;SDS011;43683;48.650;9.290;2023-08-21T00:43:44;11.30;;;7.15;;
57856;SDS011;43683;48.650;9.290;2023-08-21T00:46:10;11.45;;;7.43;;
57856;SDS011;43683;48.650;9.290;2023-08-21T00:48:35;12.50;;;7.22;;
57856;SDS011;43683;48.650;9.290;2023-08-21T00:51:02;11.25;;;6.90;;
57856;SDS011;43683;48.650;9.290;2023-08-21T00:53:28;14.23;;;6.70;;
57856;SDS011;43683;48.650;9.290;2023-08-21T00:55:54;10.82;;;6.72;;
57856;SDS011;43683;48.650;9.290;2023-08-21T00:58:20;10.98;;;7.13;;
57856;SDS011;43683;48.650;9.290;2023-08-21T01:00:46;10.98;;;7.70;;
57856;SDS011;43683;48.650;9.290;2023-08-21T01:03:14;11.60;;;7.28;;
57856;SDS011;43683;48.650;9.290;2023-08-21T01:05:39;12.68;;;8.05;;
57856;SDS011;43683;48.650;9.290;2023-08-21T01:08:10;13.73;;;7.97;;
57856;SDS011;43683;48.650;9.290;2023-08-21T01:11:23;10.60;;;7.80;;
57856;SDS011;43683;48.650;9.290;2023-08-21T01:16:00;13.00;;;8.75;;
57856;SDS011;43683;48.650;9.290;2023-08-21T01:18:28;11.77;;;7.68;;
57856;SDS011;43683;48.650;9.290;2023-08-21T01:20:55;11.77;;;8.05;;
57856;SDS011;43683;48.650;9.290;2023-08-21T01:23:29;11.68;;;7.57;;
57856;SDS011;43683;48.650;9.290;2023-08-21T01:26:01;13.98;;;7.65;;
57856;SDS011;43683;48.650;9.290;2023-08-21T01:28:27;11.90;;;7.60;;
57856;SDS011;43683;48.650;9.290;2023-08-21T01:30:59;10.73;;;7.73;;
57856;SDS011;43683;48.650;9.290;2023-08-21T01:33:50;12.50;;;7.80;;
57856;SDS011;43683;48.650;9.290;2023-08-21T01:36:18;16.40;;;8.75;;
57856;SDS011;43683;48.650;9.290;2023-08-21T01:38:45;13.63;;;9.00;;
57856;SDS011;43683;48.650;9.290;2023-08-21T01:41:11;13.63;;;8.45;;
57856;SDS011;43683;48.650;9.290;2023-08-21T01:43:36;14.05;;;8.18;;
57856;SDS011;43683;48.650;9.290;2023-08-21T01:46:02;11.73;;;8.10;;
57856;SDS011;43683;48.650;9.290;2023-08-21T01:48:28;14.73;;;8.77;;
57856;SDS011;43683;48.650;9.290;2023-08-21T01:50:54;13.57;;;8.65;;
57856;SDS011;43683;48.650;9.290;2023-08-21T01:53:19;14.13;;;7.85;;
57856;SDS011;43683;48.650;9.290;2023-08-21T01:55:45;13.43;;;8.73;;
57856;SDS011;43683;48.650;9.290;2023-08-21T01:58:10;15.90;;;8.93;;
57856;SDS011;43683;48.650;9.290;2023-08-21T02:00:36;12.60;;;8.40;;
57856;SDS011;43683;48.650;9.290;2023-08-21T02:03:01;13.25;;;8.95;;
57856;SDS011;43683;48.650;9.290;2023-08-21T02:05:27;11.95;;;7.47;;
57856;SDS011;43683;48.650;9.290;2023-08-21T02:07:52;11.75;;;8.32;;
57856;SDS011;43683;48.650;9.290;2023-08-21T02:10:18;13.48;;;8.35;;
57856;SDS011;43683;48.650;9.290;2023-08-21T02:12:43;11.45;;;7.45;;
57856;SDS011;43683;48.650;9.290;2023-08-21T02:15:09;13.48;;;8.10;;
57856;SDS011;43683;48.650;9.290;2023-08-21T02:17:35;13.15;;;7.68;;
57856;SDS011;43683;48.650;9.290;2023-08-21T02:20:01;10.95;;;8.27;;
57856;SDS011;43683;48.650;9.290;2023-08-21T02:22:26;11.68;;;7.75;;
57856;SDS011;43683;48.650;9.290;2023-08-21T02:24:52;12.73;;;7.97;;
57856;SDS011;43683;48.650;9.290;2023-08-21T02:27:18;11.82;;;8.10;;
57856;SDS011;43683;48.650;9.290;2023-08-21T02:29:44;12.93;;;7.80;;
57856;SDS011;43683;48.650;9.290;2023-08-21T02:32:09;10.88;;;7.97;;
57856;SDS011;43683;48.650;9.290;2023-08-21T02:34:35;11.48;;;8.10;;
57856;SDS011;43683;48.650;9.290;2023-08-21T02:37:00;11.43;;;8.55;;
57856;SDS011;43683;48.650;9.290;2023-08-21T02:39:26;11.65;;;7.60;;
57856;SDS011;43683;48.650;9.290;2023-08-21T02:41:51;12.15;;;7.88;;
57856;SDS011;43683;48.650;9.290;2023-08-21T02:44:17;12.20;;;8.85;;
57856;SDS011;43683;48.650;9.290;2023-08-21T02:46:42;11.95;;;7.90;;
57856;SDS011;43683;48.650;9.290;2023-08-21T02:49:08;14.38;;;8.43;;
57856;SDS011;43683;48.650;9.290;2023-08-21T02:51:33;14.45;;;8.18;;
57856;SDS011;43683;48.650;9.290;2023-08-21T02:53:59;12.27;;;8.00;;
57856;SDS011;43683;48.650;9.290;2023-08-21T02:56:24;15.27;;;9.05;;
57856;SDS011;43683;48.650;9.290;2023-08-21T02:58:50;12.95;;;9.27;;
57856;SDS011;43683;48.650;9.290;2023-08-21T03:01:15;12.27;;;7.72;;
57856;SDS011;43683;48.650;9.290;2023-08-21T03:03:42;13.43;;;8.40;;
57856;SDS011;43683;48.650;9.290;2023-08-21T03:06:07;13.50;;;8.38;;
57856;SDS011;43683;48.650;9.290;2023-08-21T03:08:33;12.82;;;7.90;;
57856;SDS011;43683;48.650;9.290;2023-08-21T03:10:58;11.77;;;8.45;;
57856;SDS011;43683;48.650;9.290;2023-08-21T03:13:24;10.60;;;7.43;;
57856;SDS011;43683;48.650;9.290;2023-08-21T03:15:49;12.52;;;7.70;;
57856;SDS011;43683;48.650;9.290;2023-08-21T03:18:15;11.88;;;7.57;;
57856;SDS011;43683;48.650;9.290;2023-08-21T03:20:44;12.77;;;7.90;;
57856;SDS011;43683;48.650;9.290;2023-08-21T03:23:10;13.32;;;8.02;;
57856;SDS011;43683;48.650;9.290;2023-08-21T03:25:36;11.15;;;7.70;;
57856;SDS011;43683;48.650;9.290;2023-08-21T03:28:01;13.93;;;8.25;;
57856;SDS011;43683;48.650;9.290;2023-08-21T03:30:27;14.65;;;7.90;;
57856;SDS011;43683;48.650;9.290;2023-08-21T03:32:53;11.70;;;7.90;;
57856;SDS011;43683;48.650;9.290;2023-08-21T03:35:18;11.95;;;8.48;;
57856;SDS011;43683;48.650;9.290;2023-08-21T03:37:44;12.18;;;7.63;;
57856;SDS011;43683;48.650;9.290;2023-08-21T03:40:09;12.57;;;8.15;;
57856;SDS011;43683;48.650;9.290;2023-08-21T03:42:35;13.18;;;8.63;;
57856;SDS011;43683;48.650;9.290;2023-08-21T03:45:01;12.77;;;8.63;;
57856;SDS011;43683;48.650;9.290;2023-08-21T03:47:28;13.70;;;8.73;;
57856;SDS011;43683;48.650;9.290;2023-08-21T03:49:54;13.52;;;8.32;;
57856;SDS011;43683;48.650;9.290;2023-08-21T03:52:19;12.48;;;7.82;;
57856;SDS011;43683;48.650;9.290;2023-08-21T03:54:45;13.23;;;8.20;;
57856;SDS011;43683;48.650;9.290;2023-08-21T03:57:10;13.25;;;8.13;;
57856;SDS011;43683;48.650;9.290;2023-08-21T03:59:36;13.00;;;8.95;;
57856;SDS011;43683;48.650;9.290;2023-08-21T04:02:01;14.32;;;8.63;;
57856;SDS011;43683;48.650;9.290;2023-08-21T04:04:27;12.98;;;8.52;;
57856;SDS011;43683;48.650;9.290;2023-08-21T04:06:52;13.63;;;8.43;;
57856;SDS011;43683;48.650;9.290;2023-08-21T04:09:18;12.50;;;8.60;;
57856;SDS011;43683;48.650;9.290;2023-08-21T04:11:43;13.82;;;9.00;;
57856;SDS011;43683;48.650;9.290;2023-08-21T04:14:09;16.45;;;8.98;;
57856;SDS011;43683;48.650;9.290;2023-08-21T04:16:34;14.85;;;9.07;;
57856;SDS011;43683;48.650;9.290;2023-08-21T04:19:00;18.60;;;9.35;;
57856;SDS011;43683;48.650;9.290;2023-08-21T04:21:26;14.00;;;9.05;;
57856;SDS011;43683;48.650;9.290;2023-08-21T04:23:51;12.75;;;8.02;;
57856;SDS011;43683;48.650;9.290;2023-08-21T04:26:18;16.00;;;9.43;;
57856;SDS011;43683;48.650;9.290;2023-08-21T04:28:44;15.02;;;8.63;;
57856;SDS011;43683;48.650;9.290;2023-08-21T04:31:10;14.38;;;8.90;;
57856;SDS011;43683;48.650;9.290;2023-08-21T04:33:36;15.52;;;8.85;;
57856;SDS011;43683;48.650;9.290;2023-08-21T04:36:01;14.80;;;8.70;;
57856;SDS011;43683;48.650;9.290;2023-08-21T04:38:27;14.85;;;8.52;;
57856;SDS011;43683;48.650;9.290;2023-08-21T04:40:52;12.98;;;8.88;;
57856;SDS011;43683;48.650;9.290;2023-08-21T04:43:18;13.65;;;8.95;;
57856;SDS011;43683;48.650;9.290;2023-08-21T04:45:47;14.38;;;9.13;;
57856;SDS011;43683;48.650;9.290;2023-08-21T04:48:14;15.35;;;9.07;;
57856;SDS011;43683;48.650;9.290;2023-08-21T04:50:39;14.25;;;7.60;;
57856;SDS011;43683;48.650;9.290;2023-08-21T04:53:05;12.48;;;8.20;;
57856;SDS011;43683;48.650;9.290;2023-08-21T04:55:31;13.43;;;8.77;;
57856;SDS011;43683;48.650;9.290;2023-08-21T04:57:56;14.25;;;8.50;;
57856;SDS011;43683;48.650;9.290;2023-08-21T05:00:22;12.75;;;8.50;;
57856;SDS011;43683;48.650;9.290;2023-08-21T05:02:47;16.33;;;8.93;;
57856;SDS011;43683;48.650;9.290;2023-08-21T05:05:13;13.82;;;9.13;;
57856;SDS011;43683;48.650;9.290;2023-08-21T05:07:38;14.23;;;8.80;;
57856;SDS011;43683;48.650;9.290;2023-08-21T05:10:04;13.20;;;8.38;;
57856;SDS011;43683;48.650;9.290;2023-08-21T05:12:30;13.40;;;9.05;;
57856;SDS011;43683;48.650;9.290;2023-08-21T05:14:56;13.07;;;8.48;;
57856;SDS011;43683;48.650;9.290;2023-08-21T05:17:21;14.90;;;8.18;;
57856;SDS011;43683;48.650;9.290;2023-08-21T05:19:47;14.45;;;8.75;;
57856;SDS011;43683;48.650;9.290;2023-08-21T05:22:12;13.20;;;8.55;;
57856;SDS011;43683;48.650;9.290;2023-08-21T05:24:38;12.80;;;8.68;;
57856;SDS011;43683;48.650;9.290;2023-08-21T05:27:03;11.73;;;7.85;;
57856;SDS011;43683;48.650;9.290;2023-08-21T05:29:29;12.15;;;8.50;;
57856;SDS011;43683;48.650;9.290;2023-08-21T05:31:55;13.23;;;7.78;;
57856;SDS011;43683;48.650;9.290;2023-08-21T05:34:20;13.27;;;8.45;;
57856;SDS011;43683;48.650;9.290;2023-08-21T05:36:46;13.38;;;7.72;;
57856;SDS011;43683;48.650;9.290;2023-08-21T05:39:11;12.80;;;8.65;;
57856;SDS011;43683;48.650;9.290;2023-08-21T05:41:37;15.07;;;8.15;;
57856;SDS011;43683;48.650;9.290;2023-08-21T05:44:04;16.13;;;8.48;;
57856;SDS011;43683;48.650;9.290;2023-08-21T05:46:29;12.70;;;8.20;;
57856;SDS011;43683;48.650;9.290;2023-08-21T05:48:55;14.20;;;8.73;;
57856;SDS011;43683;48.650;9.290;2023-08-21T05:51:20;13.10;;;7.88;;
57856;SDS011;43683;48.650;9.290;2023-08-21T05:53:46;15.35;;;8.63;;
57856;SDS011;43683;48.650;9.290;2023-08-21T05:56:12;11.30;;;7.57;;
57856;SDS011;43683;48.650;9.290;2023-08-21T05:58:37;12.48;;;8.00;;
57856;SDS011;43683;48.650;9.290;2023-08-21T06:01:03;16.48;;;9.00;;
57856;SDS011;43683;48.650;9.290;2023-08-21T06:03:28;15.07;;;8.93;;
57856;SDS011;43683;48.650;9.290;2023-08-21T06:05:54;12.70;;;8.27;;
57856;SDS011;43683;48.650;9.290;2023-08-21T06:08:20;15.30;;;8.20;;
57856;SDS011;43683;48.650;9.290;2023-08-21T06:10:50;13.98;;;8.27;;
57856;SDS011;43683;48.650;9.290;2023-08-21T06:13:16;13.40;;;8.80;;
57856;SDS011;43683;48.650;9.290;2023-08-21T06:15:45;15.80;;;8.32;;
57856;SDS011;43683;48.650;9.290;2023-08-21T06:18:11;12.55;;;8.13;;
57856;SDS011;43683;48.650;9.290;2023-08-21T06:20:36;10.98;;;7.30;;
57856;SDS011;43683;48.650;9.290;2023-08-21T06:23:02;13.10;;;8.48;;
57856;SDS011;43683;48.650;9.290;2023-08-21T06:25:28;11.13;;;7.53;;
57856;SDS011;43683;48.650;9.290;2023-08-21T06:27:55;11.13;;;7.45;;
57856;SDS011;43683;48.650;9.290;2023-08-21T06:30:21;13.60;;;8.70;;
57856;SDS011;43683;48.650;9.290;2023-08-21T06:32:46;11.32;;;7.88;;
57856;SDS011;43683;48.650;9.290;2023-08-21T06:35:12;12.90;;;7.25;;
57856;SDS011;43683;48.650;9.290;2023-08-21T06:37:38;12.82;;;8.20;;
57856;SDS011;43683;48.650;9.290;2023-08-21T06:40:04;11.27;;;7.70;;
57856;SDS011;43683;48.650;9.290;2023-08-21T06:42:31;12.25;;;8.02;;
57856;SDS011;43683;48.650;9.290;2023-08-21T06:44:57;12.80;;;7.88;;
57856;SDS011;43683;48.650;9.290;2023-08-21T06:47:23;10.80;;;7.10;;
57856;SDS011;43683;48.650;9.290;2023-08-21T06:49:48;12.05;;;7.15;;
57856;SDS011;43683;48.650;9.290;2023-08-21T06:52:14;15.45;;;7.60;;
57856;SDS011;43683;48.650;9.290;2023-08-21T06:54:39;11.93;;;7.07;;
57856;SDS011;43683;48.650;9.290;2023-08-21T06:57:05;10.60;;;6.85;;
57856;SDS011;43683;48.650;9.290;2023-08-21T06:59:30;10.68;;;6.75;;
57856;SDS011;43683;48.650;9.290;2023-08-21T07:02:00;11.18;;;7.00;;
57856;SDS011;43683;48.650;9.290;2023-08-21T07:04:27;11.73;;;6.47;;
57856;SDS011;43683;48.650;9.290;2023-08-21T07:06:52;10.55;;;6.35;;
57856;SDS011;43683;48.650;9.290;2023-08-21T07:09:18;14.95;;;6.55;;
57856;SDS011;43683;48.650;9.290;2023-08-21T07:11:43;9.75;;;6.78;;
57856;SDS011;43683;48.650;9.290;2023-08-21T07:14:09;10.10;;;5.75;;
57856;SDS011;43683;48.650;9.290;2023-08-21T07:16:34;10.90;;;6.55;;
57856;SDS011;43683;48.650;9.290;2023-08-21T07:19:00;11.57;;;5.85;;
57856;SDS011;43683;48.650;9.290;2023-08-21T07:21:25;10.18;;;5.50;;
57856;SDS011;43683;48.650;9.290;2023-08-21T07:23:51;9.40;;;5.47;;
57856;SDS011;43683;48.650;9.290;2023-08-21T07:26:16;9.82;;;5.88;;
57856;SDS011;43683;48.650;9.290;2023-08-21T07:28:42;10.90;;;6.28;;
57856;SDS011;43683;48.650;9.290;2023-08-21T07:31:07;11.77;;;7.00;;
57856;SDS011;43683;48.650;9.290;2023-08-21T07:33:33;9.35;;;5.65;;
57856;SDS011;43683;48.650;9.290;2023-08-21T07:36:02;14.15;;;6.15;;
57856;SDS011;43683;48.650;9.290;2023-08-21T07:38:29;8.55;;;5.18;;
57856;SDS011;43683;48.650;9.290;2023-08-21T07:41:05;9.38;;;5.75;;
57856;SDS011;43683;48.650;9.290;2023-08-21T07:43:32;8.05;;;5.88;;
57856;SDS011;43683;48.650;9.290;2023-08-21T07:46:01;9.00;;;6.22;;
57856;SDS011;43683;48.650;9.290;2023-08-21T07:48:28;9.60;;;6.18;;
57856;SDS011;43683;48.650;9.290;2023-08-21T07:50:53;8.63;;;5.90;;
57856;SDS011;43683;48.650;9.290;2023-08-21T07:53:19;9.20;;;5.63;;
57856;SDS011;43683;48.650;9.290;2023-08-21T07:55:45;7.70;;;5.03;;
57856;SDS011;43683;48.650;9.290;2023-08-21T07:58:10;8.57;;;5.30;;
57856;SDS011;43683;48.650;9.290;2023-08-21T08:00:36;9.87;;;5.67;;
57856;SDS011;43683;48.650;9.290;2023-08-21T08:03:03;8.13;;;5.20;;
57856;SDS011;43683;48.650;9.290;2023-08-21T08:05:30;8.77;;;5.18;;
57856;SDS011;43683;48.650;9.290;2023-08-21T08:07:56;8.93;;;5.50;;
57856;SDS011;43683;48.650;9.290;2023-08-21T08:10:21;6.70;;;4.87;;
57856;SDS011;43683;48.650;9.290;2023-08-21T08:12:47;8.30;;;5.10;;
57856;SDS011;43683;48.650;9.290;2023-08-21T08:15:13;10.93;;;5.50;;
57856;SDS011;43683;48.650;9.290;2023-08-21T08:17:38;10.13;;;5.03;;
57856;SDS011;43683;48.650;9.290;2023-08-21T08:20:04;8.53;;;5.10;;
57856;SDS011;43683;48.650;9.290;2023-08-21T08:22:31;6.80;;;4.80;;
57856;SDS011;43683;48.650;9.290;2023-08-21T08:24:56;9.00;;;5.40;;
57856;SDS011;43683;48.650;9.290;2023-08-21T08:27:22;7.70;;;4.87;;
57856;SDS011;43683;48.650;9.290;2023-08-21T08:29:48;7.63;;;5.40;;
57856;SDS011;43683;48.650;9.290;2023-08-21T08:32:14;8.82;;;5.18;;
57856;SDS011;43683;48.650;9.290;2023-08-21T08:34:40;9.73;;;5.50;;
57856;SDS011;43683;48.650;9.290;2023-08-21T08:37:05;8.73;;;5.57;;
57856;SDS011;43683;48.650;9.290;2023-08-21T08:39:31;9.17;;;5.40;;
57856;SDS011;43683;48.650;9.290;2023-08-21T08:41:57;7.57;;;5.30;;
57856;SDS011;43683;48.650;9.290;2023-08-21T08:44:27;8.77;;;5.40;;
57856;SDS011;43683;48.650;9.290;2023-08-21T08:46:54;8.32;;;5.25;;
57856;SDS011;43683;48.650;9.290;2023-08-21T08:49:20;10.10;;;5.70;;
57856;SDS011;43683;48.650;9.290;2023-08-21T08:51:48;8.50;;;5.50;;
57856;SDS011;43683;48.650;9.290;2023-08-21T08:54:16;8.73;;;5.88;;
57856;SDS011;43683;48.650;9.290;2023-08-21T08:56:42;10.70;;;5.50;;
57856;SDS011;43683;48.650;9.290;2023-08-21T08:59:08;8.27;;;5.25;;
57856;SDS011;43683;48.650;9.290;2023-08-21T09:01:34;9.40;;;5.30;;
57856;SDS011;43683;48.650;9.290;2023-08-21T09:04:00;8.60;;;5.40;;
57856;SDS011;43683;48.650;9.290;2023-08-21T09:06:26;8.32;;;5.22;;
57856;SDS011;43683;48.650;9.290;2023-08-21T09:08:56;11.23;;;5.68;;
57856;SDS011;43683;48.650;9.290;2023-08-21T09:11:22;8.25;;;4.90;;
57856;SDS011;43683;48.650;9.290;2023-08-21T09:13:48;10.00;;;5.90;;
57856;SDS011;43683;48.650;9.290;2023-08-21T09:16:15;7.07;;;5.40;;
57856;SDS011;43683;48.650;9.290;2023-08-21T09:18:49;9.75;;;5.47;;
57856;SDS011;43683;48.650;9.290;2023-08-21T09:21:17;9.00;;;5.22;;
57856;SDS011;43683;48.650;9.290;2023-08-21T09:23:43;7.88;;;5.28;;
57856;SDS011;43683;48.650;9.290;2023-08-21T09:26:09;8.43;;;5.15;;
57856;SDS011;43683;48.650;9.290;2023-08-21T09:28:34;8.73;;;5.23;;
57856;SDS011;43683;48.650;9.290;2023-08-21T09:31:00;9.37;;;5.47;;
57856;SDS011;43683;48.650;9.290;2023-08-21T09:33:27;8.10;;;4.78;;
57856;SDS011;43683;48.650;9.290;2023-08-21T09:35:53;7.87;;;4.70;;
57856;SDS011;43683;48.650;9.290;2023-08-21T09:40:54;7.03;;;4.43;;
57856;SDS011;43683;48.650;9.290;2023-08-21T09:43:21;8.80;;;4.85;;
57856;SDS011;43683;48.650;9.290;2023-08-21T09:45:49;8.25;;;4.80;;
57856;SDS011;43683;48.650;9.290;2023-08-21T09:48:17;8.30;;;4.25;;
57856;SDS011;43683;48.650;9.290;2023-08-21T09:50:44;7.78;;;4.97;;
57856;SDS011;43683;48.650;9.290;2023-08-21T09:53:11;5.97;;;4.30;;
57856;SDS011;43683;48.650;9.290;2023-08-21T09:55:38;8.73;;;4.70;;
57856;SDS011;43683;48.650;9.290;2023-08-21T09:58:06;6.25;;;4.15;;
57856;SDS011;43683;48.650;9.290;2023-08-21T10:00:34;6.80;;;4.20;;
57856;SDS011;43683;48.650;9.290;2023-08-21T10:03:01;8.98;;;4.25;;
57856;SDS011;43683;48.650;9.290;2023-08-21T10:05:29;7.45;;;4.65;;
57856;SDS011;43683;48.650;9.290;2023-08-21T10:07:56;7.30;;;4.63;;
57856;SDS011;43683;48.650;9.290;2023-08-21T10:10:34;5.85;;;3.72;;
57856;SDS011;43683;48.650;9.290;2023-08-21T10:13:01;7.97;;;4.03;;
57856;SDS011;43683;48.650;9.290;2023-08-21T10:15:28;7.75;;;4.55;;
57856;SDS011;43683;48.650;9.290;2023-08-21T10:17:55;8.05;;;3.92;;
57856;SDS011;43683;48.650;9.290;2023-08-21T10:20:24;7.75;;;3.92;;
57856;SDS011;43683;48.650;9.290;2023-08-21T10:22:54;7.20;;;4.40;;
57856;SDS011;43683;48.650;9.290;2023-08-21T10:25:26;7.18;;;4.38;;
57856;SDS011;43683;48.650;9.290;2023-08-21T10:27:55;6.82;;;4.35;;
57856;SDS011;43683;48.650;9.290;2023-08-21T10:30:23;7.47;;;4.32;;
57856;SDS011;43683;48.650;9.290;2023-08-21T10:32:53;7.13;;;4.22;;
57856;SDS011;43683;48.650;9.290;2023-08-21T10:35:21;7.07;;;3.90;;
57856;SDS011;43683;48.650;9.290;2023-08-21T10:40:33;6.25;;;4.03;;
57856;SDS011;43683;48.650;9.290;2023-08-21T10:43:00;6.43;;;3.97;;
57856;SDS011;43683;48.650;9.290;2023-08-21T10:47:51;8.35;;;4.57;;
57856;SDS011;43683;48.650;9.290;2023-08-21T10:50:17;7.22;;;4.53;;
57856;SDS011;43683;48.650;9.290;2023-08-21T10:52:43;8.85;;;4.72;;
57856;SDS011;43683;48.650;9.290;2023-08-21T10:55:12;6.93;;;4.70;;
57856;SDS011;43683;48.650;9.290;2023-08-21T10:57:39;7.65;;;4.55;;
57856;SDS011;43683;48.650;9.290;2023-08-21T11:00:11;8.38;;;5.07;;
57856;SDS011;43683;48.650;9.290;2023-08-21T11:02:40;6.85;;;4.22;;
57856;SDS011;43683;48.650;9.290;2023-08-21T11:05:07;7.45;;;4.60;;
57856;SDS011;43683;48.650;9.290;2023-08-21T11:07:41;7.68;;;4.40;;
57856;SDS011;43683;48.650;9.290;2023-08-21T11:12:48;7.80;;;4.43;;
57856;SDS011;43683;48.650;9.290;2023-08-21T11:15:17;9.00;;;4.88;;
57856;SDS011;43683;48.650;9.290;2023-08-21T11:17:56;7.82;;;4.65;;
57856;SDS011;43683;48.650;9.290;2023-08-21T11:20:33;6.82;;;4.30;;
57856;SDS011;43683;48.650;9.290;2023-08-21T11:23:01;7.47;;;4.47;;
57856;SDS011;43683;48.650;9.290;2023-08-21T11:25:30;7.00;;;4.60;;
57856;SDS011;43683;48.650;9.290;2023-08-21T11:27:56;7.38;;;4.70;;
57856;SDS011;43683;48.650;9.290;2023-08-21T11:30:22;7.68;;;5.10;;
57856;SDS011;43683;48.650;9.290;2023-08-21T11:32:48;6.88;;;4.55;;
57856;SDS011;43683;48.650;9.290;2023-08-21T11:35:15;11.57;;;7.15;;
57856;SDS011;43683;48.650;9.290;2023-08-21T11:37:44;10.73;;;4.95;;
57856;SDS011;43683;48.650;9.290;2023-08-21T11:40:10;7.38;;;4.75;;
57856;SDS011;43683;48.650;9.290;2023-08-21T11:42:38;7.82;;;4.57;;
57856;SDS011;43683;48.650;9.290;2023-08-21T11:45:03;8.27;;;4.90;;
57856;SDS011;43683;48.650;9.290;2023-08-21T11:47:30;8.00;;;4.63;;
57856;SDS011;43683;48.650;9.290;2023-08-21T11:50:01;7.35;;;4.55;;
57856;SDS011;43683;48.650;9.290;2023-08-21T11:52:29;6.43;;;4.35;;
57856;SDS011;43683;48.650;9.290;2023-08-21T11:54:56;8.45;;;4.63;;
57856;SDS011;43683;48.650;9.290;2023-08-21T11:57:23;8.93;;;4.75;;
57856;SDS011;43683;48.650;9.290;2023-08-21T11:59:49;7.57;;;4.82;;
57856;SDS011;43683;48.650;9.290;2023-08-21T12:02:19;8.40;;;4.78;;
57856;SDS011;43683;48.650;9.290;2023-08-21T12:04:51;7.20;;;4.70;;
57856;SDS011;43683;48.650;9.290;2023-08-21T12:07:18;8.23;;;4.57;;
57856;SDS011;43683;48.650;9.290;2023-08-21T12:09:47;8.20;;;4.70;;
57856;SDS011;43683;48.650;9.290;2023-08-21T12:12:14;8.73;;;4.95;;
57856;SDS011;43683;48.650;9.290;2023-08-21T12:14:39;7.53;;;5.05;;
57856;SDS011;43683;48.650;9.290;2023-08-21T12:17:05;7.30;;;4.93;;
57856;SDS011;43683;48.650;9.290;2023-08-21T12:19:30;7.73;;;4.50;;
57856;SDS011;43683;48.650;9.290;2023-08-21T12:21:56;7.63;;;4.60;;
57856;SDS011;43683;48.650;9.290;2023-08-21T12:24:23;8.70;;;4.28;;
57856;SDS011;43683;48.650;9.290;2023-08-21T12:26:49;8.48;;;4.40;;
57856;SDS011;43683;48.650;9.290;2023-08-21T12:29:14;7.00;;;4.47;;
57856;SDS011;43683;48.650;9.290;2023-08-21T12:31:40;8.60;;;4.63;;
57856;SDS011;43683;48.650;9.290;2023-08-21T12:34:05;8.90;;;4.77;;
57856;SDS011;43683;48.650;9.290;2023-08-21T12:36:33;9.07;;;4.93;;
57856;SDS011;43683;48.650;9.290;2023-08-21T12:39:00;8.45;;;4.72;;
57856;SDS011;43683;48.650;9.290;2023-08-21T12:41:26;7.30;;;4.70;;
57856;SDS011;43683;48.650;9.290;2023-08-21T12:43:51;9.07;;;5.53;;
57856;SDS011;43683;48.650;9.290;2023-08-21T12:46:17;6.30;;;4.13;;
57856;SDS011;43683;48.650;9.290;2023-08-21T12:48:42;8.80;;;4.53;;
57856;SDS011;43683;48.650;9.290;2023-08-21T12:51:08;9.43;;;4.93;;
57856;SDS011;43683;48.650;9.290;2023-08-21T12:53:34;8.17;;;4.70;;
57856;SDS011;43683;48.650;9.290;2023-08-21T12:55:59;7.28;;;4.15;;
57856;SDS011;43683;48.650;9.290;2023-08-21T12:58:25;6.60;;;4.57;;
57856;SDS011;43683;48.650;9.290;2023-08-21T13:03:18;7.32;;;4.13;;
57856;SDS011;43683;48.650;9.290;2023-08-21T13:05:43;8.48;;;4.60;;
57856;SDS011;43683;48.650;9.290;2023-08-21T13:08:09;6.82;;;3.88;;
57856;SDS011;43683;48.650;9.290;2023-08-21T13:10:34;9.33;;;4.57;;
57856;SDS011;43683;48.650;9.290;2023-08-21T13:13:00;7.33;;;4.60;;
57856;SDS011;43683;48.650;9.290;2023-08-21T13:15:25;7.33;;;4.60;;
57856;SDS011;43683;48.650;9.290;2023-08-21T13:17:51;8.07;;;4.70;;
57856;SDS011;43683;48.650;9.290;2023-08-21T13:20:16;7.47;;;4.47;;
57856;SDS011;43683;48.650;9.290;2023-08-21T13:22:45;8.55;;;4.70;;
57856;SDS011;43683;48.650;9.290;2023-08-21T13:25:13;6.45;;;4.03;;
57856;SDS011;43683;48.650;9.290;2023-08-21T13:27:39;6.57;;;4.15;;
57856;SDS011;43683;48.650;9.290;2023-08-21T13:30:05;8.77;;;4.10;;
57856;SDS011;43683;48.650;9.290;2023-08-21T13:32:32;6.97;;;4.35;;
57856;SDS011;43683;48.650;9.290;2023-08-21T13:34:57;6.07;;;3.97;;
57856;SDS011;43683;48.650;9.290;2023-08-21T13:37:23;6.75;;;4.53;;
57856;SDS011;43683;48.650;9.290;2023-08-21T13:39:48;7.55;;;4.22;;
57856;SDS011;43683;48.650;9.290;2023-08-21T13:42:14;6.07;;;4.03;;
57856;SDS011;43683;48.650;9.290;2023-08-21T13:44:39;5.30;;;3.67;;
57856;SDS011;43683;48.650;9.290;2023-08-21T13:47:05;8.02;;;3.60;;
57856;SDS011;43683;48.650;9.290;2023-08-21T13:49:30;8.52;;;4.30;;
57856;SDS011;43683;48.650;9.290;2023-08-21T13:51:57;8.23;;;5.50;;
57856;SDS011;43683;48.650;9.290;2023-08-21T13:54:22;6.68;;;3.90;;
57856;SDS011;43683;48.650;9.290;2023-08-21T13:56:48;8.13;;;3.58;;
57856;SDS011;43683;48.650;9.290;2023-08-21T13:59:13;7.18;;;3.97;;
57856;SDS011;43683;48.650;9.290;2023-08-21T14:01:39;6.72;;;3.78;;
57856;SDS011;43683;48.650;9.290;2023-08-21T14:04:04;6.70;;;3.85;;
57856;SDS011;43683;48.650;9.290;2023-08-21T14:06:30;7.45;;;3.28;;
57856;SDS011;43683;48.650;9.290;2023-08-21T14:08:55;6.88;;;3.60;;
57856;SDS011;43683;48.650;9.290;2023-08-21T14:11:21;8.18;;;3.80;;
57856;SDS011;43683;48.650;9.290;2023-08-21T14:13:46;6.18;;;3.70;;
57856;SDS011;43683;48.650;9.290;2023-08-21T14:16:12;7.18;;;3.47;;
57856;SDS011;43683;48.650;9.290;2023-08-21T14:18:38;9.15;;;3.97;;
57856;SDS011;43683;48.650;9.290;2023-08-21T14:21:03;7.37;;;3.77;;
57856;SDS011;43683;48.650;9.290;2023-08-21T14:23:29;7.85;;;4.18;;
57856;SDS011;43683;48.650;9.290;2023-08-21T14:25:54;6.53;;;4.05;;
57856;SDS011;43683;48.650;9.290;2023-08-21T14:28:20;5.68;;;3.80;;
57856;SDS011;43683;48.650;9.290;2023-08-21T14:30:45;6.67;;;4.07;;
57856;SDS011;43683;48.650;9.290;2023-08-21T14:35:37;6.82;;;3.85;;
57856;SDS011;43683;48.650;9.290;2023-08-21T14:38:03;9.52;;;4.20;;
57856;SDS011;43683;48.650;9.290;2023-08-21T14:40:28;8.18;;;4.10;;
57856;SDS011;43683;48.650;9.290;2023-08-21T14:42:54;8.73;;;4.45;;
57856;SDS011;43683;48.650;9.290;2023-08-21T14:45:19;6.57;;;3.78;;
57856;SDS011;43683;48.650;9.290;2023-08-21T14:50:11;7.68;;;4.15;;
57856;SDS011;43683;48.650;9.290;2023-08-21T14:52:36;7.55;;;4.35;;
57856;SDS011;43683;48.650;9.290;2023-08-21T14:57:28;5.72;;;3.63;;